sensor_id;sensor_type;location;lat;lon;timestamp;pressure;altitude;pressure_sealevel;temperature
55038;BMP280;40937;53.594;10.034;2023-06-26T00:01:40;101557.94;;;23.58
55038;BMP280;40937;53.594;10.034;2023-06-26T00:04:08;101557.03;;;23.71
55038;BMP280;40937;53.594;10.034;2023-06-26T00:06:40;101556.44;;;23.74
55038;BMP280;40937;53.594;10.034;2023-06-26T00:09:09;101561.19;;;23.69
55038;BMP280;40937;53.594;10.034;2023-06-26T00:11:36;101552.38;;;23.54
55038;BMP280;40937;53.594;10.034;2023-06-26T00:14:03;101549.09;;;23.44
55038;BMP280;40937;53.594;10.034;2023-06-26T00:16:30;101550.16;;;23.56
55038;BMP280;40937;53.594;10.034;2023-06-26T00:19:00;101553.44;;;23.31
55038;BMP280;40937;53.594;10.034;2023-06-26T00:21:28;101551.50;;;23.09
55038;BMP280;40937;53.594;10.034;2023-06-26T00:23:55;101541.75;;;23.13
55038;BMP280;40937;53.594;10.034;2023-06-26T00:26:23;101541.13;;;23.38
55038;BMP280;40937;53.594;10.034;2023-06-26T00:28:51;101543.16;;;23.33
55038;BMP280;40937;53.594;10.034;2023-06-26T00:31:19;101541.47;;;23.23
55038;BMP280;40937;53.594;10.034;2023-06-26T00:33:47;101542.09;;;23.20
55038;BMP280;40937;53.594;10.034;2023-06-26T00:36:14;101544.09;;;23.14
55038;BMP280;40937;53.594;10.034;2023-06-26T00:38:41;101540.13;;;23.12
55038;BMP280;40937;53.594;10.034;2023-06-26T00:41:08;101536.72;;;23.20
55038;BMP280;40937;53.594;10.034;2023-06-26T00:43:40;101534.59;;;23.17
55038;BMP280;40937;53.594;10.034;2023-06-26T00:46:12;101526.53;;;23.17
55038;BMP280;40937;53.594;10.034;2023-06-26T00:48:42;101531.91;;;23.17
55038;BMP280;40937;53.594;10.034;2023-06-26T00:51:10;101517.97;;;23.15
55038;BMP280;40937;53.594;10.034;2023-06-26T00:53:38;101526.53;;;23.17
55038;BMP280;40937;53.594;10.034;2023-06-26T00:56:05;101524.38;;;23.19
55038;BMP280;40937;53.594;10.034;2023-06-26T00:58:35;101523.84;;;23.17
55038;BMP280;40937;53.594;10.034;2023-06-26T01:01:04;101523.97;;;23.12
55038;BMP280;40937;53.594;10.034;2023-06-26T01:03:34;101514.22;;;23.16
55038;BMP280;40937;53.594;10.034;2023-06-26T01:06:03;101515.41;;;23.10
55038;BMP280;40937;53.594;10.034;2023-06-26T01:08:32;101510.63;;;23.07
55038;BMP280;40937;53.594;10.034;2023-06-26T01:10:59;101510.63;;;23.07
55038;BMP280;40937;53.594;10.034;2023-06-26T01:13:28;101513.47;;;23.02
55038;BMP280;40937;53.594;10.034;2023-06-26T01:15:56;101517.84;;;22.98
55038;BMP280;40937;53.594;10.034;2023-06-26T01:18:26;101509.47;;;22.99
55038;BMP280;40937;53.594;10.034;2023-06-26T01:20:53;101510.84;;;22.96
55038;BMP280;40937;53.594;10.034;2023-06-26T01:23:30;101502.91;;;22.91
55038;BMP280;40937;53.594;10.034;2023-06-26T01:26:14;101505.91;;;22.90
55038;BMP280;40937;53.594;10.034;2023-06-26T01:28:42;101501.09;;;22.87
55038;BMP280;40937;53.594;10.034;2023-06-26T01:31:10;101505.72;;;22.86
55038;BMP280;40937;53.594;10.034;2023-06-26T01:33:38;101500.09;;;22.83
55038;BMP280;40937;53.594;10.034;2023-06-26T01:36:07;101502.03;;;22.82
55038;BMP280;40937;53.594;10.034;2023-06-26T01:38:35;101492.56;;;22.85
55038;BMP280;40937;53.594;10.034;2023-06-26T01:41:06;101488.25;;;22.84
55038;BMP280;40937;53.594;10.034;2023-06-26T01:43:43;101485.41;;;22.80
55038;BMP280;40937;53.594;10.034;2023-06-26T01:46:19;101480.63;;;22.77
55038;BMP280;40937;53.594;10.034;2023-06-26T01:48:55;101473.63;;;22.76
55038;BMP280;40937;53.594;10.034;2023-06-26T01:51:27;101474.25;;;22.73
55038;BMP280;40937;53.594;10.034;2023-06-26T01:53:58;101467.56;;;22.70
55038;BMP280;40937;53.594;10.034;2023-06-26T01:56:28;101467.78;;;22.74
55038;BMP280;40937;53.594;10.034;2023-06-26T01:58:59;101464.47;;;22.77
55038;BMP280;40937;53.594;10.034;2023-06-26T02:01:27;101461.88;;;22.72
55038;BMP280;40937;53.594;10.034;2023-06-26T02:03:54;101460.31;;;22.71
55038;BMP280;40937;53.594;10.034;2023-06-26T02:06:22;101456.31;;;22.68
55038;BMP280;40937;53.594;10.034;2023-06-26T02:08:51;101456.13;;;22.65
55038;BMP280;40937;53.594;10.034;2023-06-26T02:11:18;101461.50;;;22.65
55038;BMP280;40937;53.594;10.034;2023-06-26T02:13:46;101449.13;;;22.64
55038;BMP280;40937;53.594;10.034;2023-06-26T02:16:14;101447.25;;;22.64
55038;BMP280;40937;53.594;10.034;2023-06-26T02:18:42;101448.06;;;22.65
55038;BMP280;40937;53.594;10.034;2023-06-26T02:21:10;101447.44;;;22.68
55038;BMP280;40937;53.594;10.034;2023-06-26T02:23:37;101445.38;;;22.65
55038;BMP280;40937;53.594;10.034;2023-06-26T02:26:05;101449.75;;;22.61
55038;BMP280;40937;53.594;10.034;2023-06-26T02:28:33;101441.31;;;22.54
55038;BMP280;40937;53.594;10.034;2023-06-26T02:31:00;101441.50;;;22.57
55038;BMP280;40937;53.594;10.034;2023-06-26T02:33:29;101439.09;;;22.56
55038;BMP280;40937;53.594;10.034;2023-06-26T02:35:56;101444.97;;;22.58
55038;BMP280;40937;53.594;10.034;2023-06-26T02:38:23;101434.94;;;22.49
55038;BMP280;40937;53.594;10.034;2023-06-26T02:40:50;101432.84;;;22.46
55038;BMP280;40937;53.594;10.034;2023-06-26T02:43:17;101431.25;;;22.45
55038;BMP280;40937;53.594;10.034;2023-06-26T02:45:45;101428.47;;;22.50
55038;BMP280;40937;53.594;10.034;2023-06-26T02:48:12;101428.66;;;22.40
55038;BMP280;40937;53.594;10.034;2023-06-26T02:50:43;101425.50;;;22.38
55038;BMP280;40937;53.594;10.034;2023-06-26T02:53:13;101418.91;;;22.44
55038;BMP280;40937;53.594;10.034;2023-06-26T02:55:44;101424.91;;;22.41
55038;BMP280;40937;53.594;10.034;2023-06-26T02:58:14;101420.41;;;22.50
55038;BMP280;40937;53.594;10.034;2023-06-26T03:00:41;101417.91;;;22.40
55038;BMP280;40937;53.594;10.034;2023-06-26T03:03:13;101415.81;;;22.37
55038;BMP280;40937;53.594;10.034;2023-06-26T03:05:40;101408.75;;;22.41
55038;BMP280;40937;53.594;10.034;2023-06-26T03:08:09;101406.97;;;22.37
55038;BMP280;40937;53.594;10.034;2023-06-26T03:10:36;101407.47;;;22.39
55038;BMP280;40937;53.594;10.034;2023-06-26T03:13:03;101406.16;;;22.36
55038;BMP280;40937;53.594;10.034;2023-06-26T03:15:30;101407.56;;;22.34
55038;BMP280;40937;53.594;10.034;2023-06-26T03:17:57;101405.50;;;22.30
55038;BMP280;40937;53.594;10.034;2023-06-26T03:20:27;101405.69;;;22.34
55038;BMP280;40937;53.594;10.034;2023-06-26T03:22:56;101398.22;;;22.31
55038;BMP280;40937;53.594;10.034;2023-06-26T03:25:25;101402.00;;;22.30
55038;BMP280;40937;53.594;10.034;2023-06-26T03:28:13;101403.00;;;22.34
55038;BMP280;40937;53.594;10.034;2023-06-26T03:30:41;101403.78;;;22.35
55038;BMP280;40937;53.594;10.034;2023-06-26T03:33:08;101400.91;;;22.31
55038;BMP280;40937;53.594;10.034;2023-06-26T03:35:36;101402.00;;;22.30
55038;BMP280;40937;53.594;10.034;2023-06-26T03:38:03;101403.09;;;22.29
55038;BMP280;40937;53.594;10.034;2023-06-26T03:40:32;101403.59;;;22.31
55038;BMP280;40937;53.594;10.034;2023-06-26T03:42:59;101396.63;;;22.30
55038;BMP280;40937;53.594;10.034;2023-06-26T03:45:26;101391.25;;;22.30
55038;BMP280;40937;53.594;10.034;2023-06-26T03:47:54;101391.25;;;22.30
55038;BMP280;40937;53.594;10.034;2023-06-26T03:50:21;101387.47;;;22.31
55038;BMP280;40937;53.594;10.034;2023-06-26T03:52:50;101381.50;;;22.34
55038;BMP280;40937;53.594;10.034;2023-06-26T03:55:17;101378.91;;;22.29
55038;BMP280;40937;53.594;10.034;2023-06-26T04:00:25;101367.53;;;22.32
55038;BMP280;40937;53.594;10.034;2023-06-26T04:03:00;101367.03;;;22.30
55038;BMP280;40937;53.594;10.034;2023-06-26T04:05:33;101360.69;;;22.26
55038;BMP280;40937;53.594;10.034;2023-06-26T04:08:30;101366.53;;;22.28
55038;BMP280;40937;53.594;10.034;2023-06-26T04:10:57;101367.16;;;22.25
55038;BMP280;40937;53.594;10.034;2023-06-26T04:13:26;101366.38;;;22.24
55038;BMP280;40937;53.594;10.034;2023-06-26T04:16:03;101359.09;;;22.25
55038;BMP280;40937;53.594;10.034;2023-06-26T04:18:48;101358.00;;;22.26
55038;BMP280;40937;53.594;10.034;2023-06-26T04:21:33;101355.78;;;22.28
55038;BMP280;40937;53.594;10.034;2023-06-26T04:24:12;101353.09;;;22.28
55038;BMP280;40937;53.594;10.034;2023-06-26T04:26:42;101347.88;;;22.23
55038;BMP280;40937;53.594;10.034;2023-06-26T04:29:15;101349.84;;;22.31
55038;BMP280;40937;53.594;10.034;2023-06-26T04:32:22;101347.25;;;22.26
55038;BMP280;40937;53.594;10.034;2023-06-26T04:35:37;101344.28;;;22.27
55038;BMP280;40937;53.594;10.034;2023-06-26T04:40:23;101342.06;;;22.29
55038;BMP280;40937;53.594;10.034;2023-06-26T04:45:52;101331.69;;;22.37
55038;BMP280;40937;53.594;10.034;2023-06-26T04:48:45;101332.50;;;22.37
55038;BMP280;40937;53.594;10.034;2023-06-26T04:51:21;101327.13;;;22.37
55038;BMP280;40937;53.594;10.034;2023-06-26T04:53:59;101322.53;;;22.38
55038;BMP280;40937;53.594;10.034;2023-06-26T04:56:39;101322.63;;;22.46
55038;BMP280;40937;53.594;10.034;2023-06-26T04:59:14;101321.22;;;22.49
55038;BMP280;40937;53.594;10.034;2023-06-26T05:01:59;101318.09;;;22.56
55038;BMP280;40937;53.594;10.034;2023-06-26T05:04:30;101316.50;;;22.55
55038;BMP280;40937;53.594;10.034;2023-06-26T05:07:01;101318.47;;;22.63
55038;BMP280;40937;53.594;10.034;2023-06-26T05:09:36;101308.19;;;22.65
55038;BMP280;40937;53.594;10.034;2023-06-26T05:12:05;101303.69;;;22.74
55038;BMP280;40937;53.594;10.034;2023-06-26T05:14:32;101308.78;;;22.84
55038;BMP280;40937;53.594;10.034;2023-06-26T05:17:03;101306.63;;;22.86
55038;BMP280;40937;53.594;10.034;2023-06-26T05:19:32;101313.63;;;22.96
55038;BMP280;40937;53.594;10.034;2023-06-26T05:22:00;101307.97;;;22.98
55038;BMP280;40937;53.594;10.034;2023-06-26T05:24:33;101300.88;;;23.02
55038;BMP280;40937;53.594;10.034;2023-06-26T05:27:04;101294.34;;;23.03
55038;BMP280;40937;53.594;10.034;2023-06-26T05:29:33;101292.00;;;23.10
55038;BMP280;40937;53.594;10.034;2023-06-26T05:32:01;101287.91;;;23.12
55038;BMP280;40937;53.594;10.034;2023-06-26T05:34:37;101276.97;;;23.09
55038;BMP280;40937;53.594;10.034;2023-06-26T05:37:14;101281.28;;;23.18
55038;BMP280;40937;53.594;10.034;2023-06-26T05:39:57;101279.28;;;23.24
55038;BMP280;40937;53.594;10.034;2023-06-26T05:42:34;101274.69;;;23.33
55038;BMP280;40937;53.594;10.034;2023-06-26T05:45:01;101273.41;;;23.31
55038;BMP280;40937;53.594;10.034;2023-06-26T05:47:28;101267.25;;;23.30
55038;BMP280;40937;53.594;10.034;2023-06-26T05:50:00;101270.59;;;23.36
55038;BMP280;40937;53.594;10.034;2023-06-26T05:52:28;101270.16;;;23.43
55038;BMP280;40937;53.594;10.034;2023-06-26T05:54:57;101263.81;;;23.47
55038;BMP280;40937;53.594;10.034;2023-06-26T05:57:26;101267.03;;;23.58
55038;BMP280;40937;53.594;10.034;2023-06-26T05:59:54;101259.41;;;23.60
55038;BMP280;40937;53.594;10.034;2023-06-26T06:02:22;101253.38;;;23.63
55038;BMP280;40937;53.594;10.034;2023-06-26T06:04:49;101249.91;;;23.71
55038;BMP280;40937;53.594;10.034;2023-06-26T06:07:18;101253.28;;;23.77
55038;BMP280;40937;53.594;10.034;2023-06-26T06:09:45;101245.97;;;23.77
55038;BMP280;40937;53.594;10.034;2023-06-26T06:12:15;101248.84;;;23.90
55038;BMP280;40937;53.594;10.034;2023-06-26T06:14:46;101254.09;;;23.95
55038;BMP280;40937;53.594;10.034;2023-06-26T06:17:16;101244.88;;;23.96
55038;BMP280;40937;53.594;10.034;2023-06-26T06:52:49;101208.31;;;24.59
55038;BMP280;40937;53.594;10.034;2023-06-26T06:55:16;101204.66;;;24.64
55038;BMP280;40937;53.594;10.034;2023-06-26T06:57:44;101203.38;;;24.70
55038;BMP280;40937;53.594;10.034;2023-06-26T07:00:13;101200.47;;;24.75
55038;BMP280;40937;53.594;10.034;2023-06-26T07:02:43;101185.34;;;24.83
55038;BMP280;40937;53.594;10.034;2023-06-26T07:05:10;101188.81;;;24.92
55038;BMP280;40937;53.594;10.034;2023-06-26T07:07:39;101189.78;;;24.96
55038;BMP280;40937;53.594;10.034;2023-06-26T07:10:08;101185.13;;;24.96
55038;BMP280;40937;53.594;10.034;2023-06-26T07:12:36;101194.81;;;25.06
55038;BMP280;40937;53.594;10.034;2023-06-26T07:15:05;101187.94;;;25.09
55038;BMP280;40937;53.594;10.034;2023-06-26T07:17:33;101197.13;;;25.16
55038;BMP280;40937;53.594;10.034;2023-06-26T07:20:00;101194.56;;;25.20
55038;BMP280;40937;53.594;10.034;2023-06-26T07:22:30;101188.50;;;25.23
55038;BMP280;40937;53.594;10.034;2023-06-26T07:24:58;101184.81;;;25.28
55038;BMP280;40937;53.594;10.034;2023-06-26T07:27:25;101186.84;;;25.31
55038;BMP280;40937;53.594;10.034;2023-06-26T07:29:53;101180.94;;;25.37
55038;BMP280;40937;53.594;10.034;2023-06-26T07:32:20;101181.06;;;25.41
55038;BMP280;40937;53.594;10.034;2023-06-26T07:34:47;101182.44;;;25.47
55038;BMP280;40937;53.594;10.034;2023-06-26T07:37:14;101177.50;;;25.49
55038;BMP280;40937;53.594;10.034;2023-06-26T07:39:41;101199.38;;;25.56
55038;BMP280;40937;53.594;10.034;2023-06-26T07:42:10;101204.59;;;25.61
55038;BMP280;40937;53.594;10.034;2023-06-26T07:44:37;101182.78;;;25.67
55038;BMP280;40937;53.594;10.034;2023-06-26T07:47:05;101171.66;;;25.68
55038;BMP280;40937;53.594;10.034;2023-06-26T07:49:32;101181.91;;;25.75
55038;BMP280;40937;53.594;10.034;2023-06-26T07:51:59;101177.41;;;25.79
55038;BMP280;40937;53.594;10.034;2023-06-26T07:54:26;101173.38;;;25.85
55038;BMP280;40937;53.594;10.034;2023-06-26T07:56:54;101173.84;;;25.87
55038;BMP280;40937;53.594;10.034;2023-06-26T07:59:25;101170.81;;;25.89
55038;BMP280;40937;53.594;10.034;2023-06-26T08:01:54;101167.78;;;25.90
55038;BMP280;40937;53.594;10.034;2023-06-26T08:04:22;101170.47;;;25.90
55038;BMP280;40937;53.594;10.034;2023-06-26T08:06:50;101169.03;;;25.93
55038;BMP280;40937;53.594;10.034;2023-06-26T08:09:19;101161.06;;;25.96
55038;BMP280;40937;53.594;10.034;2023-06-26T08:11:46;101149.56;;;25.99
55038;BMP280;40937;53.594;10.034;2023-06-26T08:14:14;101144.59;;;26.01
55038;BMP280;40937;53.594;10.034;2023-06-26T08:16:43;101149.81;;;26.06
55038;BMP280;40937;53.594;10.034;2023-06-26T08:19:11;101144.19;;;26.12
55038;BMP280;40937;53.594;10.034;2023-06-26T08:21:41;101137.66;;;26.13
55038;BMP280;40937;53.594;10.034;2023-06-26T08:24:11;101129.31;;;26.18
55038;BMP280;40937;53.594;10.034;2023-06-26T08:26:39;101123.13;;;26.29
55038;BMP280;40937;53.594;10.034;2023-06-26T08:29:06;101121.22;;;26.30
55038;BMP280;40937;53.594;10.034;2023-06-26T08:31:34;101119.66;;;26.29
55038;BMP280;40937;53.594;10.034;2023-06-26T08:34:03;101127.50;;;26.34
55038;BMP280;40937;53.594;10.034;2023-06-26T08:36:31;101120.31;;;26.38
55038;BMP280;40937;53.594;10.034;2023-06-26T08:38:58;101119.41;;;26.46
55038;BMP280;40937;53.594;10.034;2023-06-26T08:41:26;101124.25;;;26.53
55038;BMP280;40937;53.594;10.034;2023-06-26T08:43:53;101133.63;;;26.56
55038;BMP280;40937;53.594;10.034;2023-06-26T08:46:20;101140.81;;;26.64
55038;BMP280;40937;53.594;10.034;2023-06-26T08:48:49;101137.44;;;26.67
55038;BMP280;40937;53.594;10.034;2023-06-26T08:51:21;101147.13;;;26.68
55038;BMP280;40937;53.594;10.034;2023-06-26T08:53:55;101150.31;;;26.70
55038;BMP280;40937;53.594;10.034;2023-06-26T08:56:25;101164.97;;;26.69
55038;BMP280;40937;53.594;10.034;2023-06-26T08:58:54;101176.69;;;26.73
55038;BMP280;40937;53.594;10.034;2023-06-26T09:01:22;101181.22;;;26.69
55038;BMP280;40937;53.594;10.034;2023-06-26T09:03:50;101183.00;;;26.65
55038;BMP280;40937;53.594;10.034;2023-06-26T09:06:19;101197.78;;;26.67
55038;BMP280;40937;53.594;10.034;2023-06-26T09:08:47;101197.88;;;26.71
55038;BMP280;40937;53.594;10.034;2023-06-26T09:11:14;101203.97;;;26.68
55038;BMP280;40937;53.594;10.034;2023-06-26T09:13:42;101191.47;;;26.75
55038;BMP280;40937;53.594;10.034;2023-06-26T09:16:10;101200.28;;;26.72
55038;BMP280;40937;53.594;10.034;2023-06-26T09:18:37;101204.66;;;26.77
55038;BMP280;40937;53.594;10.034;2023-06-26T09:21:06;101212.56;;;26.82
55038;BMP280;40937;53.594;10.034;2023-06-26T09:23:35;101224.06;;;26.79
55038;BMP280;40937;53.594;10.034;2023-06-26T09:26:02;101226.31;;;26.77
55038;BMP280;40937;53.594;10.034;2023-06-26T09:28:30;101228.59;;;26.75
55038;BMP280;40937;53.594;10.034;2023-06-26T09:31:01;101214.34;;;26.78
55038;BMP280;40937;53.594;10.034;2023-06-26T09:33:34;101210.75;;;26.74
55038;BMP280;40937;53.594;10.034;2023-06-26T09:36:05;101220.00;;;26.73
55038;BMP280;40937;53.594;10.034;2023-06-26T09:38:35;101231.41;;;26.66
55038;BMP280;40937;53.594;10.034;2023-06-26T09:41:03;101238.72;;;26.66
55038;BMP280;40937;53.594;10.034;2023-06-26T09:43:30;101231.03;;;26.68
55038;BMP280;40937;53.594;10.034;2023-06-26T09:45:58;101234.06;;;26.54
55038;BMP280;40937;53.594;10.034;2023-06-26T09:48:27;101260.53;;;26.36
55038;BMP280;40937;53.594;10.034;2023-06-26T09:50:56;101264.66;;;26.00
55038;BMP280;40937;53.594;10.034;2023-06-26T09:53:27;101274.72;;;25.79
55038;BMP280;40937;53.594;10.034;2023-06-26T09:55:56;101273.72;;;25.62
55038;BMP280;40937;53.594;10.034;2023-06-26T09:58:23;101280.91;;;25.58
55038;BMP280;40937;53.594;10.034;2023-06-26T10:00:51;101289.72;;;25.47
55038;BMP280;40937;53.594;10.034;2023-06-26T10:03:19;101284.44;;;25.50
55038;BMP280;40937;53.594;10.034;2023-06-26T10:05:46;101292.38;;;25.55
55038;BMP280;40937;53.594;10.034;2023-06-26T10:08:15;101298.41;;;25.52
55038;BMP280;40937;53.594;10.034;2023-06-26T10:10:46;101290.03;;;25.45
55038;BMP280;40937;53.594;10.034;2023-06-26T10:13:17;101294.28;;;25.25
55038;BMP280;40937;53.594;10.034;2023-06-26T10:15:50;101297.97;;;25.21
55038;BMP280;40937;53.594;10.034;2023-06-26T10:18:18;101301.06;;;25.02
55038;BMP280;40937;53.594;10.034;2023-06-26T10:20:47;101307.56;;;25.01
55038;BMP280;40937;53.594;10.034;2023-06-26T10:23:16;101324.31;;;24.68
55038;BMP280;40937;53.594;10.034;2023-06-26T10:25:48;101345.09;;;24.50
55038;BMP280;40937;53.594;10.034;2023-06-26T10:28:20;101368.09;;;23.95
55038;BMP280;40937;53.594;10.034;2023-06-26T10:30:50;101370.78;;;24.04
55038;BMP280;40937;53.594;10.034;2023-06-26T10:33:18;101386.31;;;24.07
55038;BMP280;40937;53.594;10.034;2023-06-26T10:35:46;101378.56;;;23.57
55038;BMP280;40937;53.594;10.034;2023-06-26T10:38:13;101373.94;;;23.26
55038;BMP280;40937;53.594;10.034;2023-06-26T10:40:41;101383.41;;;23.15
55038;BMP280;40937;53.594;10.034;2023-06-26T10:43:09;101384.50;;;22.91
55038;BMP280;40937;53.594;10.034;2023-06-26T10:45:43;101377.16;;;22.83
55038;BMP280;40937;53.594;10.034;2023-06-26T10:48:13;101382.31;;;22.93
55038;BMP280;40937;53.594;10.034;2023-06-26T10:50:41;101380.59;;;23.20
55038;BMP280;40937;53.594;10.034;2023-06-26T10:53:14;101386.97;;;23.02
55038;BMP280;40937;53.594;10.034;2023-06-26T10:55:48;101391.78;;;23.13
55038;BMP280;40937;53.594;10.034;2023-06-26T10:58:40;101389.84;;;23.05
55038;BMP280;40937;53.594;10.034;2023-06-26T11:01:19;101394.25;;;23.01
55038;BMP280;40937;53.594;10.034;2023-06-26T11:03:48;101401.16;;;23.16
55038;BMP280;40937;53.594;10.034;2023-06-26T11:06:18;101405.03;;;23.32
55038;BMP280;40937;53.594;10.034;2023-06-26T11:08:47;101406.63;;;23.33
55038;BMP280;40937;53.594;10.034;2023-06-26T11:11:15;101406.53;;;23.16
55038;BMP280;40937;53.594;10.034;2023-06-26T11:13:42;101406.75;;;23.06
55038;BMP280;40937;53.594;10.034;2023-06-26T11:16:11;101416.59;;;23.02
55038;BMP280;40937;53.594;10.034;2023-06-26T11:18:40;101424.69;;;22.88
55038;BMP280;40937;53.594;10.034;2023-06-26T11:21:08;101426.94;;;22.94
55038;BMP280;40937;53.594;10.034;2023-06-26T11:23:37;101433.59;;;22.74
55038;BMP280;40937;53.594;10.034;2023-06-26T11:26:15;101422.13;;;22.69
55038;BMP280;40937;53.594;10.034;2023-06-26T11:28:48;101440.13;;;22.46
55038;BMP280;40937;53.594;10.034;2023-06-26T11:31:26;101427.78;;;22.45
55038;BMP280;40937;53.594;10.034;2023-06-26T11:33:55;101442.41;;;22.52
55038;BMP280;40937;53.594;10.034;2023-06-26T11:36:24;101440.78;;;22.65
55038;BMP280;40937;53.594;10.034;2023-06-26T11:38:55;101444.22;;;22.80
55038;BMP280;40937;53.594;10.034;2023-06-26T11:41:23;101450.59;;;22.84
55038;BMP280;40937;53.594;10.034;2023-06-26T11:43:50;101449.50;;;22.85
55038;BMP280;40937;53.594;10.034;2023-06-26T11:46:19;101452.22;;;22.85
55038;BMP280;40937;53.594;10.034;2023-06-26T11:48:47;101460.34;;;22.93
55038;BMP280;40937;53.594;10.034;2023-06-26T11:51:15;101460.22;;;22.99
55038;BMP280;40937;53.594;10.034;2023-06-26T11:53:44;101468.25;;;23.12
55038;BMP280;40937;53.594;10.034;2023-06-26T11:56:12;101470.53;;;23.19
55038;BMP280;40937;53.594;10.034;2023-06-26T11:59:00;101481.91;;;23.16
55038;BMP280;40937;53.594;10.034;2023-06-26T12:01:31;101487.69;;;23.09
55038;BMP280;40937;53.594;10.034;2023-06-26T12:04:01;101493.28;;;23.13
55038;BMP280;40937;53.594;10.034;2023-06-26T12:06:33;101492.75;;;22.88
55038;BMP280;40937;53.594;10.034;2023-06-26T12:09:02;101486.97;;;22.81
55038;BMP280;40937;53.594;10.034;2023-06-26T12:11:31;101489.91;;;22.71
55038;BMP280;40937;53.594;10.034;2023-06-26T12:13:59;101493.75;;;22.79
55038;BMP280;40937;53.594;10.034;2023-06-26T12:16:27;101494.97;;;22.86
55038;BMP280;40937;53.594;10.034;2023-06-26T12:18:58;101486.56;;;22.88
55038;BMP280;40937;53.594;10.034;2023-06-26T12:21:33;101493.63;;;22.98
55038;BMP280;40937;53.594;10.034;2023-06-26T12:24:13;101484.91;;;23.14
55038;BMP280;40937;53.594;10.034;2023-06-26T12:26:42;101502.38;;;23.26
55038;BMP280;40937;53.594;10.034;2023-06-26T12:29:11;101506.13;;;23.38
55038;BMP280;40937;53.594;10.034;2023-06-26T12:31:43;101491.34;;;23.50
55038;BMP280;40937;53.594;10.034;2023-06-26T12:34:12;101492.03;;;23.64
55038;BMP280;40937;53.594;10.034;2023-06-26T12:36:45;101491.13;;;23.77
55038;BMP280;40937;53.594;10.034;2023-06-26T12:39:16;101500.44;;;23.94
55038;BMP280;40937;53.594;10.034;2023-06-26T12:41:47;101497.59;;;23.99
55038;BMP280;40937;53.594;10.034;2023-06-26T12:44:19;101500.28;;;23.90
55038;BMP280;40937;53.594;10.034;2023-06-26T12:46:48;101508.75;;;24.06
55038;BMP280;40937;53.594;10.034;2023-06-26T12:49:16;101498.94;;;24.19
55038;BMP280;40937;53.594;10.034;2023-06-26T12:51:45;101502.63;;;24.23
55038;BMP280;40937;53.594;10.034;2023-06-26T12:54:12;101500.53;;;24.28
55038;BMP280;40937;53.594;10.034;2023-06-26T12:56:40;101511.22;;;24.42
55038;BMP280;40937;53.594;10.034;2023-06-26T12:59:07;101512.66;;;24.40
55038;BMP280;40937;53.594;10.034;2023-06-26T13:01:34;101515.03;;;24.41
55038;BMP280;40937;53.594;10.034;2023-06-26T13:04:02;101533.41;;;24.39
55038;BMP280;40937;53.594;10.034;2023-06-26T13:06:29;101507.19;;;24.22
55038;BMP280;40937;53.594;10.034;2023-06-26T13:08:59;101508.97;;;24.27
55038;BMP280;40937;53.594;10.034;2023-06-26T13:11:26;101519.41;;;24.20
55038;BMP280;40937;53.594;10.034;2023-06-26T13:13:53;101517.66;;;24.15
55038;BMP280;40937;53.594;10.034;2023-06-26T13:16:20;101519.75;;;24.27
55038;BMP280;40937;53.594;10.034;2023-06-26T13:18:47;101520.75;;;24.40
55038;BMP280;40937;53.594;10.034;2023-06-26T13:21:15;101520.13;;;24.51
55038;BMP280;40937;53.594;10.034;2023-06-26T13:23:43;101526.97;;;24.49
55038;BMP280;40937;53.594;10.034;2023-06-26T13:26:12;101512.34;;;24.50
55038;BMP280;40937;53.594;10.034;2023-06-26T13:28:39;101493.34;;;24.55
55038;BMP280;40937;53.594;10.034;2023-06-26T13:31:06;101512.47;;;24.36
55038;BMP280;40937;53.594;10.034;2023-06-26T13:33:33;101509.78;;;24.27
55038;BMP280;40937;53.594;10.034;2023-06-26T13:36:01;101504.38;;;24.27
55038;BMP280;40937;53.594;10.034;2023-06-26T13:38:32;101506.75;;;24.29
55038;BMP280;40937;53.594;10.034;2023-06-26T13:41:00;101503.13;;;24.34
55038;BMP280;40937;53.594;10.034;2023-06-26T13:43:29;101517.06;;;24.36
55038;BMP280;40937;53.594;10.034;2023-06-26T13:45:57;101517.22;;;24.39
55038;BMP280;40937;53.594;10.034;2023-06-26T13:48:24;101528.31;;;24.29
55038;BMP280;40937;53.594;10.034;2023-06-26T13:50:52;101517.97;;;24.22
55038;BMP280;40937;53.594;10.034;2023-06-26T13:53:20;101512.47;;;24.36
55038;BMP280;40937;53.594;10.034;2023-06-26T13:55:47;101510.22;;;24.29
55038;BMP280;40937;53.594;10.034;2023-06-26T13:58:14;101521.06;;;24.38
55038;BMP280;40937;53.594;10.034;2023-06-26T14:00:43;101520.56;;;24.36
55038;BMP280;40937;53.594;10.034;2023-06-26T14:03:11;101530.84;;;24.17
55038;BMP280;40937;53.594;10.034;2023-06-26T14:05:38;101524.81;;;23.89
55038;BMP280;40937;53.594;10.034;2023-06-26T14:08:07;101534.47;;;24.12
55038;BMP280;40937;53.594;10.034;2023-06-26T14:10:34;101534.78;;;24.19
55038;BMP280;40937;53.594;10.034;2023-06-26T14:13:02;101545.00;;;24.40
55038;BMP280;40937;53.594;10.034;2023-06-26T14:15:30;101555.81;;;24.40
55038;BMP280;40937;53.594;10.034;2023-06-26T14:17:58;101540.91;;;24.42
55038;BMP280;40937;53.594;10.034;2023-06-26T14:20:28;101528.84;;;24.40
55038;BMP280;40937;53.594;10.034;2023-06-26T14:22:58;101524.34;;;24.26
55038;BMP280;40937;53.594;10.034;2023-06-26T14:25:26;101536.69;;;24.10
55038;BMP280;40937;53.594;10.034;2023-06-26T14:27:55;101536.13;;;23.99
55038;BMP280;40937;53.594;10.034;2023-06-26T14:30:23;101536.53;;;24.15
55038;BMP280;40937;53.594;10.034;2023-06-26T14:32:50;101530.25;;;24.37
55038;BMP280;40937;53.594;10.034;2023-06-26T14:35:19;101526.63;;;24.42
55038;BMP280;40937;53.594;10.034;2023-06-26T14:37:47;101532.19;;;24.54
55038;BMP280;40937;53.594;10.034;2023-06-26T14:40:15;101532.34;;;24.58